Meteorological Aerodrome Report (METAR)

METAR

METAR for:NVSC (Vanua Lava/Sola Airport)
Text:NVSC 270600Z VRB03KT 9999 SCT020 BKN040 27/25 Q1013 RMK NIL
Temperature: 27.0°C ( 81°F)
Dewpoint: 25.0°C ( 77°F) [RH = 89%]
Pressure (altimeter):29.91 inches Hg (1013.0 mb)
Winds:variable direction winds at 3 MPH (3 knots; 1.5 m/s)
Visibility:6 or more sm (10+ km)
Ceiling:4000 feet AGL
Clouds: scattered clouds at 2000 feet AGL, broken clouds at 4000 feet AGL

METAR

METAR for:NVSG (Ambae/Longana Airport)
Text:NVSG 270600Z 07010KT 9999 BKN020 26/22 Q1014 RMK NIL
Temperature: 26.0°C ( 79°F)
Dewpoint: 22.0°C ( 72°F) [RH = 79%]
Pressure (altimeter):29.94 inches Hg (1014.0 mb)
Winds:from the ENE (70 degrees) at 12 MPH (10 knots; 5.1 m/s)
Visibility:6 or more sm (10+ km)
Ceiling:2000 feet AGL
Clouds: broken clouds at 2000 feet AGL

METAR

METAR for:NVSS (Santo/Pekoa International Airport)
Text:NVSS 270600Z 14008KT 9999 SCT020 25/24 Q1013 RMK NIL
Temperature: 25.0°C ( 77°F)
Dewpoint: 24.0°C ( 75°F) [RH = 94%]
Pressure (altimeter):29.91 inches Hg (1013.0 mb)
Winds:from the SE (140 degrees) at 9 MPH (8 knots; 4.1 m/s)
Visibility:6 or more sm (10+ km)
Ceiling:at least 12,000 feet AGL
Clouds: scattered clouds at 2000 feet AGL

METAR

METAR for:NVSL (Malekula/Lamap Airport)
Text:NVSL 270600Z 14008KT 9999 SCT020 25/21 Q1014 RMK NIL
Temperature: 25.0°C ( 77°F)
Dewpoint: 21.0°C ( 70°F) [RH = 79%]
Pressure (altimeter):29.94 inches Hg (1014.0 mb)
Winds:from the SE (140 degrees) at 9 MPH (8 knots; 4.1 m/s)
Visibility:6 or more sm (10+ km)
Ceiling:at least 12,000 feet AGL
Clouds: scattered clouds at 2000 feet AGL

METAR

METAR for:NVVV (Efate/Bauerfield International Airport)
Text:NVVV 270600Z 11008KT 9999 BKN020 23/19 Q1015 RMK NIL
Temperature: 23.0°C ( 73°F)
Dewpoint: 19.0°C ( 66°F) [RH = 78%]
Pressure (altimeter):29.97 inches Hg (1015.0 mb)
Winds:from the ESE (110 degrees) at 9 MPH (8 knots; 4.1 m/s)
Visibility:6 or more sm (10+ km)
Ceiling:2000 feet AGL
Clouds: broken clouds at 2000 feet AGL

METAR

METAR for:NVVW (Tanna/WhiteGrass International Airport)
Text:NVVW 270600Z 16006KT 9999 FEW020 24/17 Q1016 RMK NIL
Temperature: 24.0°C ( 75°F)
Dewpoint: 17.0°C ( 63°F) [RH = 65%]
Pressure (altimeter):30.00 inches Hg (1016.0 mb)
Winds:from the SSE (160 degrees) at 7 MPH (6 knots; 3.1 m/s)
Visibility:6 or more sm (10+ km)
Ceiling:at least 12,000 feet AGL
Clouds: few clouds at 2000 feet AGL

METAR

METAR for:NVVA (Aneityum/Anelcahuat Airport)
Text:NVVA 270600Z 18004KT 9999 BKN020 24/19 Q1017 RMK NIL
Temperature: 24.0°C ( 75°F)
Dewpoint: 19.0°C ( 66°F) [RH = 74%]
Pressure (altimeter):30.03 inches Hg (1017.0 mb)
Winds:from the S (180 degrees) at 5 MPH (4 knots; 2.1 m/s)
Visibility:6 or more sm (10+ km)
Ceiling:2000 feet AGL
Clouds: broken clouds at 2000 feet AGL

METAR

ADDS METAR Data INFO
IDs: Format: Raw Decoded Include TAF

Data at: 0655 UTC 27 Jun 2017

NVSC 270600Z VRB03KT 9999 SCT020 BKN040 27/25 Q1013 RMK NIL

NVSG 270600Z 07010KT 9999 BKN020 26/22 Q1014 RMK NIL

NVSS 270600Z 14008KT 9999 SCT020 25/24 Q1013 RMK NIL

NVSL 270600Z 14008KT 9999 SCT020 25/21 Q1014 RMK NIL

NVVV 270600Z 11008KT 9999 BKN020 23/19 Q1015 RMK NIL

NVVW 270600Z 16006KT 9999 FEW020 24/17 Q1016 RMK NIL

NVVA 270600Z 18004KT 9999 BKN020 24/19 Q1017 RMK NIL